createdAt,value
2023-06-25T00:00:26.545Z,100217.06
2023-06-25T00:05:28.117Z,100213.44
2023-06-25T00:10:30.793Z,100215.34
2023-06-25T00:15:32.418Z,100213.56
2023-06-25T00:20:34.282Z,100199.38
2023-06-25T00:25:36.258Z,100204.38
2023-06-25T00:30:39.671Z,100198.53
2023-06-25T00:35:50.470Z,100194.59
2023-06-25T00:40:52.075Z,100192.34
2023-06-25T00:45:53.710Z,100187.09
2023-06-25T00:51:02.100Z,100185.13
2023-06-25T00:56:04.625Z,100180.66
2023-06-25T01:01:18.613Z,100168.91
2023-06-25T01:06:30.438Z,100171.44
2023-06-25T01:11:32.131Z,100170.78
2023-06-25T01:16:33.699Z,100155.97
2023-06-25T01:21:36.568Z,100153.97
2023-06-25T01:26:38.135Z,100152.59
2023-06-25T01:31:41.706Z,100147.66
2023-06-25T01:36:43.670Z,100140.09
2023-06-25T01:41:45.882Z,100152.00
2023-06-25T01:46:47.474Z,100144.34
2023-06-25T01:51:49.293Z,100134.59
2023-06-25T01:56:50.856Z,100132.03
2023-06-25T02:01:52.456Z,100130.63
2023-06-25T02:06:54.455Z,100128.38
2023-06-25T02:11:56.114Z,100117.75
2023-06-25T02:16:57.768Z,100126.69
2023-06-25T02:21:59.393Z,100127.78
2023-06-25T02:27:01.048Z,100132.34
2023-06-25T02:32:02.590Z,100128.03
2023-06-25T02:37:14.870Z,100129.31
2023-06-25T02:42:16.374Z,100120.84
2023-06-25T02:47:18.204Z,100121.09
2023-06-25T02:52:19.879Z,100123.00
2023-06-25T02:57:24.349Z,100131.34
2023-06-25T03:02:26.635Z,100129.22
2023-06-25T03:07:28.247Z,100126.03
2023-06-25T03:12:29.862Z,100128.59
2023-06-25T03:17:31.431Z,100137.44
2023-06-25T03:22:33.039Z,100141.16
2023-06-25T03:27:35.281Z,100141.44
2023-06-25T03:32:36.842Z,100146.94
2023-06-25T03:37:38.606Z,100149.81
2023-06-25T03:42:40.157Z,100160.44
2023-06-25T03:47:41.937Z,100158.78
2023-06-25T03:52:43.557Z,100176.22
2023-06-25T03:57:45.091Z,100182.13
2023-06-25T04:02:46.841Z,100172.09
2023-06-25T04:07:48.420Z,100178.66
2023-06-25T04:12:49.953Z,100181.31
2023-06-25T04:17:51.734Z,100173.69
2023-06-25T04:22:53.692Z,100179.78
2023-06-25T04:27:56.427Z,100176.81
2023-06-25T04:32:58.092Z,100171.72
2023-06-25T04:37:59.870Z,100179.47
2023-06-25T04:43:01.400Z,100181.78
2023-06-25T04:48:03.019Z,100178.47
2023-06-25T04:53:04.604Z,100174.19
2023-06-25T04:58:06.215Z,100170.94
2023-06-25T05:03:07.830Z,100165.59
2023-06-25T05:08:09.923Z,100157.84
2023-06-25T05:13:11.458Z,100159.28
2023-06-25T05:18:13.085Z,100163.09
2023-06-25T05:23:14.691Z,100172.06
2023-06-25T05:28:16.225Z,100169.84
2023-06-25T05:33:17.748Z,100167.72
2023-06-25T05:38:19.287Z,100159.94
2023-06-25T05:43:20.870Z,100159.69
2023-06-25T05:48:22.383Z,100160.44
2023-06-25T05:53:25.235Z,100155.22
2023-06-25T05:58:26.795Z,100163.97
2023-06-25T06:03:28.340Z,100153.78
2023-06-25T06:08:29.934Z,100152.56
2023-06-25T06:13:31.822Z,100147.41
2023-06-25T06:18:33.305Z,100139.09
2023-06-25T06:23:34.874Z,100143.38
2023-06-25T06:28:36.536Z,100139.53
2023-06-25T06:33:40.006Z,100143.03
2023-06-25T06:38:41.720Z,100136.97
2023-06-25T06:43:43.253Z,100134.19
2023-06-25T06:48:44.812Z,100122.28
2023-06-25T06:53:46.348Z,100122.16
2023-06-25T06:58:47.999Z,100121.25
2023-06-25T07:03:49.629Z,100120.41
2023-06-25T07:08:51.551Z,100114.88
2023-06-25T07:13:53.137Z,100114.75
2023-06-25T07:18:54.980Z,100119.56
2023-06-25T07:23:56.515Z,100125.69
2023-06-25T07:28:58.142Z,100118.19
2023-06-25T07:33:59.691Z,100117.41
2023-06-25T07:39:04.436Z,100113.09
2023-06-25T07:44:18.076Z,100106.91
2023-06-25T07:49:27.450Z,100106.81
2023-06-25T07:54:28.961Z,100108.09
2023-06-25T07:59:36.037Z,100104.94
2023-06-25T08:04:49.436Z,100092.78
2023-06-25T08:09:54.102Z,100093.56
2023-06-25T08:15:00.344Z,100088.81
2023-06-25T08:20:01.884Z,100098.28
2023-06-25T08:25:08.705Z,100096.72
2023-06-25T08:30:10.829Z,100092.41
2023-06-25T08:35:12.389Z,100098.97
2023-06-25T08:40:14.334Z,100085.03
2023-06-25T08:45:15.893Z,100089.59
2023-06-25T08:50:17.430Z,100078.06
2023-06-25T08:55:21.051Z,100085.69
2023-06-25T09:00:22.768Z,100083.41
2023-06-25T09:05:27.302Z,100079.00
2023-06-25T09:10:32.652Z,100075.81
2023-06-25T09:15:34.263Z,100073.50
2023-06-25T09:20:36.096Z,100055.31
2023-06-25T09:25:37.779Z,100048.41
2023-06-25T09:30:40.388Z,100053.94
2023-06-25T09:35:42.360Z,100037.66
2023-06-25T09:40:44.328Z,100048.41
2023-06-25T09:45:46.855Z,100025.50
2023-06-25T09:50:50.056Z,100020.00
2023-06-25T09:55:53.900Z,100014.63
2023-06-25T10:00:56.339Z,100014.75
2023-06-25T10:05:58.018Z,100011.84
2023-06-25T10:11:02.404Z,100011.38
2023-06-25T10:16:04.862Z,100007.28
2023-06-25T10:21:06.401Z,100005.97
2023-06-25T10:26:08.014Z,99996.97
2023-06-25T10:31:14.640Z,99999.00
2023-06-25T10:36:16.484Z,99997.53
2023-06-25T10:41:26.513Z,100001.47
2023-06-25T10:46:35.876Z,99988.34
2023-06-25T10:51:38.736Z,99989.13
2023-06-25T10:56:40.443Z,99982.25
2023-06-25T11:01:42.179Z,99971.16
2023-06-25T11:06:43.880Z,99961.34
2023-06-25T11:11:45.598Z,99960.53
2023-06-25T11:16:47.774Z,99954.63
2023-06-25T11:21:50.903Z,99946.75
2023-06-25T11:26:58.954Z,99946.78
2023-06-25T11:32:00.544Z,99945.84
2023-06-25T11:37:12.531Z,99948.81
2023-06-25T11:42:26.656Z,99944.44
2023-06-25T11:47:28.282Z,99941.50
2023-06-25T11:52:29.879Z,99931.31
2023-06-25T11:57:31.436Z,99935.56
2023-06-25T12:02:48.360Z,99915.97
2023-06-25T12:07:51.499Z,99918.94
2023-06-25T12:12:55.949Z,99910.91
2023-06-25T12:17:57.562Z,99905.81
2023-06-25T12:22:59.083Z,99895.53
2023-06-25T12:28:01.390Z,99896.22
2023-06-25T12:33:03.143Z,99902.28
2023-06-25T12:38:05.126Z,99886.19
2023-06-25T12:43:07.021Z,99888.00
2023-06-25T12:48:08.545Z,99882.81
2023-06-25T12:53:10.563Z,99883.47
2023-06-25T12:58:12.332Z,99878.19
2023-06-25T13:03:13.987Z,99872.38
2023-06-25T13:08:15.699Z,99869.41
2023-06-25T13:13:17.222Z,99870.59
2023-06-25T13:18:19.877Z,99866.03
2023-06-25T13:23:21.619Z,99860.50
2023-06-25T13:28:23.294Z,99861.25
2023-06-25T13:33:24.834Z,99849.25
2023-06-25T13:38:27.495Z,99851.19
2023-06-25T13:43:29.086Z,99850.56
2023-06-25T13:48:30.663Z,99848.44
2023-06-25T13:53:32.281Z,99837.22
2023-06-25T13:58:33.882Z,99833.44
2023-06-25T14:03:35.517Z,99829.53
2023-06-25T14:08:37.147Z,99827.66
2023-06-25T14:13:38.665Z,99820.09
2023-06-25T14:18:40.226Z,99814.81
2023-06-25T14:23:41.857Z,99812.00
2023-06-25T14:28:43.544Z,99804.94
2023-06-25T14:33:45.439Z,99808.44
2023-06-25T14:38:48.129Z,99801.53
2023-06-25T14:43:49.761Z,99798.88
2023-06-25T14:48:51.309Z,99800.03
2023-06-25T14:53:52.975Z,99796.22
2023-06-25T14:58:54.628Z,99797.59
2023-06-25T15:03:56.403Z,99788.84
2023-06-25T15:08:58.141Z,99779.06
2023-06-25T15:14:00.958Z,99773.75
2023-06-25T15:19:02.574Z,99775.16
2023-06-25T15:24:04.509Z,99772.06
2023-06-25T15:29:06.820Z,99762.38
2023-06-25T15:34:08.774Z,99760.66
2023-06-25T15:39:10.373Z,99754.56
2023-06-25T15:44:12.090Z,99754.00
2023-06-25T15:49:13.734Z,99755.16
2023-06-25T15:59:20.204Z,99738.25
2023-06-25T16:04:21.730Z,99739.50
2023-06-25T16:09:23.317Z,99730.19
2023-06-25T16:14:26.051Z,99734.25
2023-06-25T16:19:51.662Z,99728.69
2023-06-25T16:24:50.297Z,99725.91
2023-06-25T16:29:52.318Z,99736.06
2023-06-25T16:34:53.887Z,99740.28
2023-06-25T16:39:55.607Z,99736.59
2023-06-25T16:44:59.506Z,99729.78
2023-06-25T16:50:01.373Z,99731.56
2023-06-25T16:55:03.310Z,99731.88
2023-06-25T17:00:06.047Z,99732.25
2023-06-25T17:05:10.293Z,99733.38
2023-06-25T17:10:11.996Z,99740.03
2023-06-25T17:15:13.765Z,99728.72
2023-06-25T17:20:15.468Z,99732.28
2023-06-25T17:25:17.158Z,99720.31
2023-06-25T17:30:18.814Z,99733.44
2023-06-25T17:35:20.371Z,99734.72
2023-06-25T17:40:22.062Z,99739.94
2023-06-25T17:45:23.691Z,99735.41
2023-06-25T17:50:26.231Z,99738.84
2023-06-25T17:55:27.984Z,99735.28
2023-06-25T18:00:30.179Z,99735.88
2023-06-25T18:05:32.120Z,99742.66
2023-06-25T18:10:33.732Z,99743.13
2023-06-25T18:15:40.258Z,99744.91
2023-06-25T18:20:41.924Z,99746.34
2023-06-25T18:25:43.722Z,99742.41
2023-06-25T18:30:45.883Z,99751.44
2023-06-25T18:35:47.619Z,99739.53
2023-06-25T18:40:49.246Z,99746.44
2023-06-25T18:45:51.722Z,99749.44
2023-06-25T18:50:54.156Z,99750.84
2023-06-25T18:55:57.500Z,99747.50
2023-06-25T19:00:59.209Z,99754.00
2023-06-25T19:06:00.897Z,99754.06
2023-06-25T19:11:02.537Z,99752.47
2023-06-25T19:16:04.226Z,99767.56
2023-06-25T19:21:05.748Z,99767.56
2023-06-25T19:26:07.438Z,99774.00
2023-06-25T19:31:09.110Z,99773.78
2023-06-25T19:36:11.003Z,99781.31
2023-06-25T19:41:12.578Z,99772.69
2023-06-25T19:46:14.444Z,99785.38
2023-06-25T19:51:16.135Z,99796.75
2023-06-25T19:56:17.821Z,99798.38
2023-06-25T20:01:19.448Z,99789.91
2023-06-25T20:06:21.402Z,99790.41
2023-06-25T20:11:23.741Z,99782.28
2023-06-25T20:16:25.308Z,99787.09
2023-06-25T20:21:26.852Z,99787.81
2023-06-25T20:26:28.511Z,99789.22
2023-06-25T20:31:30.109Z,99791.78
2023-06-25T20:36:31.753Z,99794.97
2023-06-25T20:41:34.617Z,99789.91
2023-06-25T20:46:36.388Z,99799.88
2023-06-25T20:51:37.974Z,99801.09
2023-06-25T20:56:39.589Z,99811.06
2023-06-25T21:01:41.181Z,99808.72
2023-06-25T21:06:43.096Z,99804.47
2023-06-25T21:11:44.799Z,99809.50
2023-06-25T21:16:46.396Z,99816.16
2023-06-25T21:21:47.953Z,99814.03
2023-06-25T21:26:49.546Z,99813.00
2023-06-25T21:31:51.171Z,99820.44
2023-06-25T21:36:52.734Z,99820.78
2023-06-25T21:41:54.321Z,99824.41
2023-06-25T21:46:55.965Z,99825.84
2023-06-25T21:52:00.873Z,99829.97
2023-06-25T21:57:02.993Z,99833.00
2023-06-25T22:02:05.175Z,99828.94
2023-06-25T22:07:06.840Z,99829.25
2023-06-25T22:12:08.537Z,99827.38
2023-06-25T22:17:10.084Z,99827.94
2023-06-25T22:22:11.694Z,99828.25
2023-06-25T22:27:14.055Z,99828.56
2023-06-25T22:32:15.780Z,99827.44
2023-06-25T22:37:17.389Z,99829.38
2023-06-25T22:42:18.961Z,99820.13
2023-06-25T22:47:20.531Z,99827.50
2023-06-25T22:52:22.077Z,99826.16
2023-06-25T22:57:23.618Z,99829.16
2023-06-25T23:02:25.554Z,99821.81
2023-06-25T23:07:27.234Z,99823.44
2023-06-25T23:12:28.830Z,99819.66
2023-06-25T23:17:30.449Z,99820.75
2023-06-25T23:22:34.236Z,99819.13
2023-06-25T23:27:36.132Z,99814.47
2023-06-25T23:32:38.091Z,99813.91
2023-06-25T23:37:45.400Z,99816.63
2023-06-25T23:42:46.929Z,99805.72
2023-06-25T23:47:49.377Z,99810.09
2023-06-25T23:52:51.019Z,99802.47
2023-06-25T23:57:52.574Z,99794.00
